createdAt,value
2022-09-09T00:02:01.506Z,38.20
2022-09-09T00:05:02.954Z,35.93
2022-09-09T00:07:52.892Z,37.03
2022-09-09T00:10:42.723Z,33.13
2022-09-09T00:13:47.105Z,33.50
2022-09-09T00:16:39.691Z,35.77
2022-09-09T00:19:41.671Z,36.80
2022-09-09T00:22:32.323Z,32.33
2022-09-09T00:25:29.068Z,33.90
2022-09-09T00:28:26.817Z,33.27
2022-09-09T00:31:20.803Z,29.83
2022-09-09T00:34:17.321Z,28.07
2022-09-09T00:37:04.355Z,28.00
2022-09-09T00:39:53.458Z,33.93
2022-09-09T00:42:45.558Z,29.37
2022-09-09T00:45:58.358Z,29.40
2022-09-09T00:48:52.356Z,30.17
2022-09-09T00:51:45.552Z,29.67
2022-09-09T00:54:51.144Z,32.03
2022-09-09T00:57:39.114Z,28.40
2022-09-09T01:00:30.921Z,32.03
2022-09-09T01:03:31.976Z,31.07
2022-09-09T01:06:32.816Z,29.33
2022-09-09T01:10:00.407Z,29.67
2022-09-09T01:12:48.733Z,29.23
2022-09-09T01:15:36.528Z,34.27
2022-09-09T01:18:32.014Z,33.30
2022-09-09T01:21:33.680Z,29.63
2022-09-09T01:24:32.206Z,32.20
2022-09-09T01:27:20.674Z,25.80
2022-09-09T01:30:17.070Z,29.30
2022-09-09T01:33:05.306Z,34.07
2022-09-09T01:36:01.616Z,27.90
2022-09-09T01:38:48.967Z,34.60
2022-09-09T01:41:35.900Z,28.50
2022-09-09T01:44:23.450Z,32.77
2022-09-09T01:47:10.748Z,27.77
2022-09-09T01:49:58.038Z,27.23
2022-09-09T01:52:48.378Z,26.60
2022-09-09T01:55:44.707Z,27.13
2022-09-09T01:58:34.433Z,30.50
2022-09-09T02:01:27.218Z,27.97
2022-09-09T02:04:41.349Z,28.80
2022-09-09T02:07:31.382Z,26.27
2022-09-09T02:10:27.701Z,26.37
2022-09-09T02:13:17.136Z,27.10
2022-09-09T02:16:23.263Z,27.87
2022-09-09T02:19:10.188Z,26.43
2022-09-09T02:21:59.708Z,23.17
2022-09-09T02:24:48.124Z,25.93
2022-09-09T02:27:35.776Z,24.60
2022-09-09T02:30:23.155Z,24.93
2022-09-09T02:33:13.513Z,27.45
2022-09-09T02:36:04.490Z,22.50
2022-09-09T02:38:54.772Z,26.30
2022-09-09T02:41:42.957Z,24.80
2022-09-09T02:44:29.872Z,25.60
2022-09-09T02:47:57.788Z,29.43
2022-09-09T02:50:58.478Z,26.90
2022-09-09T02:54:11.631Z,25.20
2022-09-09T02:57:28.738Z,25.70
2022-09-09T03:00:15.921Z,23.23
2022-09-09T03:03:05.178Z,28.00
2022-09-09T03:05:52.162Z,25.10
2022-09-09T03:08:39.153Z,24.07
2022-09-09T03:11:26.143Z,20.77
2022-09-09T03:14:13.070Z,25.45
2022-09-09T03:17:01.860Z,23.40
2022-09-09T03:19:50.461Z,26.83
2022-09-09T03:22:37.411Z,22.60
2022-09-09T03:25:25.623Z,27.23
2022-09-09T03:28:12.527Z,26.60
2022-09-09T03:31:04.876Z,24.77
2022-09-09T03:33:51.823Z,21.13
2022-09-09T03:36:38.718Z,22.47
2022-09-09T03:39:25.637Z,25.10
2022-09-09T03:42:19.548Z,24.37
2022-09-09T03:45:10.065Z,24.27
2022-09-09T03:47:58.025Z,25.63
2022-09-09T03:50:53.388Z,27.90
2022-09-09T03:53:40.700Z,26.13
2022-09-09T03:56:27.547Z,25.50
2022-09-09T03:59:15.252Z,26.60
2022-09-09T04:02:03.476Z,28.03
2022-09-09T04:04:50.452Z,26.00
2022-09-09T04:07:37.420Z,24.40
2022-09-09T04:10:24.260Z,22.23
2022-09-09T04:13:12.450Z,26.30
2022-09-09T04:16:00.878Z,25.33
2022-09-09T04:18:48.338Z,25.53
2022-09-09T04:21:35.337Z,24.57
2022-09-09T04:24:22.494Z,24.97
2022-09-09T04:27:09.416Z,27.20
2022-09-09T04:29:57.620Z,24.07
2022-09-09T04:32:44.554Z,25.03
2022-09-09T04:35:31.889Z,25.27
2022-09-09T04:38:19.510Z,22.87
2022-09-09T04:41:07.014Z,28.43
2022-09-09T04:43:54.500Z,25.07
2022-09-09T04:46:42.395Z,24.80
2022-09-09T04:49:29.282Z,26.00
2022-09-09T04:52:18.193Z,27.00
2022-09-09T04:55:05.776Z,24.60
2022-09-09T04:57:52.659Z,23.70
2022-09-09T05:00:39.602Z,21.33
2022-09-09T05:03:27.476Z,24.07
2022-09-09T05:06:20.700Z,22.27
2022-09-09T05:09:07.666Z,24.40
2022-09-09T05:11:54.649Z,23.00
2022-09-09T05:14:41.654Z,23.57
2022-09-09T05:17:28.797Z,23.83
2022-09-09T05:20:17.576Z,22.87
2022-09-09T05:23:04.593Z,28.77
2022-09-09T05:25:58.910Z,23.23
2022-09-09T05:28:46.480Z,22.10
2022-09-09T05:31:33.919Z,20.20
2022-09-09T05:34:21.647Z,21.83
2022-09-09T05:37:08.802Z,19.57
2022-09-09T05:39:55.909Z,20.10
2022-09-09T05:42:42.973Z,20.73
2022-09-09T05:45:29.884Z,19.23
2022-09-09T05:48:16.890Z,22.50
2022-09-09T05:51:05.257Z,19.33
2022-09-09T05:53:52.532Z,19.90
2022-09-09T05:56:39.824Z,17.27
2022-09-09T05:59:26.780Z,18.67
2022-09-09T06:02:14.330Z,18.67
2022-09-09T06:05:01.338Z,15.67
2022-09-09T06:07:48.291Z,16.17
2022-09-09T06:10:35.397Z,19.10
2022-09-09T06:13:22.377Z,22.17
2022-09-09T06:16:18.872Z,16.33
2022-09-09T06:19:06.071Z,18.67
2022-09-09T06:21:53.174Z,14.80
2022-09-09T06:24:40.075Z,18.33
2022-09-09T06:27:28.607Z,17.03
2022-09-09T06:30:15.621Z,17.33
2022-09-09T06:33:02.545Z,13.80
2022-09-09T06:35:54.122Z,15.40
2022-09-09T06:38:41.262Z,13.57
2022-09-09T06:41:30.793Z,13.13
2022-09-09T06:44:17.673Z,15.20
2022-09-09T06:47:04.724Z,15.10
2022-09-09T06:49:51.727Z,12.43
2022-09-09T06:52:38.647Z,16.40
2022-09-09T06:55:25.531Z,14.87
2022-09-09T06:58:12.526Z,11.83
2022-09-09T07:01:04.880Z,12.40
2022-09-09T07:03:53.985Z,13.63
2022-09-09T07:06:44.130Z,13.40
2022-09-09T07:09:32.381Z,11.03
2022-09-09T07:12:19.264Z,11.03
2022-09-09T07:15:06.813Z,11.85
2022-09-09T07:17:54.869Z,8.63
2022-09-09T07:20:42.304Z,8.30
2022-09-09T07:23:33.082Z,9.63
2022-09-09T07:26:25.271Z,8.23
2022-09-09T07:29:19.843Z,7.80
2022-09-09T07:32:07.916Z,5.90
2022-09-09T07:34:54.912Z,6.63
2022-09-09T07:37:42.242Z,5.53
2022-09-09T07:40:29.981Z,4.85
2022-09-09T07:43:19.804Z,5.07
2022-09-09T07:46:07.141Z,4.80
2022-09-09T07:48:56.783Z,6.18
2022-09-09T07:51:46.208Z,4.30
2022-09-09T07:54:33.710Z,4.22
2022-09-09T07:57:20.645Z,4.30
2022-09-09T08:00:08.101Z,7.28
2022-09-09T08:02:55.212Z,4.82
2022-09-09T08:05:42.284Z,4.65
2022-09-09T08:08:30.567Z,4.20
2022-09-09T08:11:18.056Z,5.38
2022-09-09T08:14:05.817Z,7.40
2022-09-09T08:16:55.158Z,4.70
2022-09-09T08:19:42.273Z,5.32
2022-09-09T08:22:29.162Z,4.68
2022-09-09T08:25:16.455Z,4.60
2022-09-09T08:28:04.211Z,7.70
2022-09-09T08:30:54.207Z,7.47
2022-09-09T08:33:42.710Z,4.30
2022-09-09T08:36:31.371Z,4.75
2022-09-09T08:39:20.929Z,4.82
2022-09-09T08:42:16.626Z,4.15
2022-09-09T08:45:15.204Z,3.28
2022-09-09T08:48:20.689Z,5.35
2022-09-09T08:51:08.227Z,3.58
2022-09-09T08:53:59.685Z,4.25
2022-09-09T08:56:47.913Z,4.53
2022-09-09T08:59:34.854Z,3.95
2022-09-09T09:02:33.867Z,4.90
2022-09-09T09:05:53.360Z,3.83
2022-09-09T09:08:48.932Z,3.13
2022-09-09T09:11:50.036Z,5.13
2022-09-09T09:14:38.483Z,5.25
2022-09-09T09:17:28.884Z,3.28
2022-09-09T09:20:18.358Z,5.47
2022-09-09T09:23:06.835Z,5.22
2022-09-09T09:26:00.124Z,4.50
2022-09-09T09:28:47.069Z,6.07
2022-09-09T09:31:33.950Z,5.10
2022-09-09T09:34:20.918Z,3.55
2022-09-09T09:37:20.551Z,2.90
2022-09-09T09:40:20.124Z,2.97
2022-09-09T09:43:09.590Z,2.97
2022-09-09T09:46:16.664Z,2.85
2022-09-09T09:49:09.799Z,2.63
2022-09-09T09:52:02.950Z,6.40
2022-09-09T09:54:49.999Z,2.65
2022-09-09T09:57:37.518Z,4.40
2022-09-09T10:00:25.036Z,2.63
2022-09-09T10:03:25.483Z,3.47
2022-09-09T10:06:12.390Z,3.28
2022-09-09T10:09:00.151Z,2.63
2022-09-09T10:11:53.410Z,5.47
2022-09-09T10:15:14.245Z,2.63
2022-09-09T10:18:29.416Z,3.13
2022-09-09T10:21:37.468Z,2.80
2022-09-09T10:24:45.408Z,3.83
2022-09-09T10:27:41.348Z,2.67
2022-09-09T10:30:40.844Z,4.40
2022-09-09T10:33:51.107Z,2.33
2022-09-09T10:36:47.582Z,2.55
2022-09-09T10:39:43.151Z,4.07
2022-09-09T10:42:32.378Z,3.33
2022-09-09T10:45:34.718Z,3.35
2022-09-09T10:48:44.276Z,2.92
2022-09-09T10:52:11.811Z,2.55
2022-09-09T10:55:30.054Z,3.55
2022-09-09T10:58:24.173Z,1.95
2022-09-09T11:01:21.713Z,4.65
2022-09-09T11:04:20.184Z,2.00
2022-09-09T11:07:12.419Z,4.03
2022-09-09T11:10:07.331Z,1.85
2022-09-09T11:13:01.693Z,2.15
2022-09-09T11:16:11.387Z,3.88
2022-09-09T11:19:10.500Z,4.63
2022-09-09T11:21:59.713Z,3.60
2022-09-09T11:24:55.735Z,4.38
2022-09-09T11:28:16.629Z,3.28
2022-09-09T11:31:35.737Z,2.22
2022-09-09T11:34:51.571Z,3.25
2022-09-09T11:37:46.750Z,1.50
2022-09-09T11:40:34.272Z,3.38
2022-09-09T11:43:46.161Z,2.85
2022-09-09T11:46:39.118Z,2.60
2022-09-09T11:49:42.632Z,3.63
2022-09-09T11:52:44.324Z,1.55
2022-09-09T11:55:37.058Z,1.42
2022-09-09T11:58:24.012Z,2.25
2022-09-09T12:01:27.748Z,2.15
2022-09-09T12:04:29.775Z,2.95
2022-09-09T12:07:39.316Z,2.65
2022-09-09T12:10:33.723Z,2.65
2022-09-09T12:13:24.195Z,3.05
2022-09-09T12:16:36.136Z,3.10
2022-09-09T12:19:26.464Z,2.28
2022-09-09T12:22:31.975Z,2.90
2022-09-09T12:25:33.522Z,2.25
2022-09-09T12:28:34.617Z,2.10
2022-09-09T12:31:43.901Z,2.28
2022-09-09T12:34:40.158Z,1.20
2022-09-09T12:37:49.532Z,1.95
2022-09-09T12:40:36.532Z,1.13
2022-09-09T12:43:25.035Z,1.38
2022-09-09T12:46:27.161Z,1.73
2022-09-09T12:49:39.367Z,1.73
2022-09-09T12:52:39.775Z,1.67
2022-09-09T12:55:31.840Z,3.85
2022-09-09T12:58:20.278Z,2.15
2022-09-09T13:01:19.774Z,4.22
2022-09-09T13:04:23.441Z,2.47
2022-09-09T13:07:10.923Z,2.22
2022-09-09T13:09:59.442Z,2.58
2022-09-09T13:12:46.564Z,2.35
2022-09-09T13:15:33.477Z,1.52
2022-09-09T13:18:24.433Z,1.45
2022-09-09T13:21:11.531Z,2.30
2022-09-09T13:24:00.616Z,2.67
2022-09-09T13:26:57.424Z,2.00
2022-09-09T13:29:53.441Z,3.42
2022-09-09T13:32:41.154Z,1.83
2022-09-09T13:35:28.977Z,4.65
2022-09-09T13:38:16.975Z,2.58
2022-09-09T13:41:06.654Z,4.80
2022-09-09T13:43:56.207Z,2.83
2022-09-09T13:46:43.448Z,3.10
2022-09-09T13:49:31.389Z,4.20
2022-09-09T13:52:19.807Z,4.22
2022-09-09T13:55:09.020Z,3.25
2022-09-09T13:58:01.604Z,5.25
2022-09-09T14:00:48.597Z,4.13
2022-09-09T14:03:35.616Z,2.78
2022-09-09T14:06:22.864Z,2.78
2022-09-09T14:09:13.563Z,2.15
2022-09-09T14:12:01.426Z,2.60
2022-09-09T14:14:48.366Z,5.72
2022-09-09T14:17:37.053Z,3.45
2022-09-09T14:20:23.988Z,3.42
2022-09-09T14:23:13.121Z,6.85
2022-09-09T14:26:00.079Z,3.80
2022-09-09T14:28:55.917Z,3.67
2022-09-09T14:31:43.158Z,5.70
2022-09-09T14:34:30.047Z,3.70
2022-09-09T14:37:17.730Z,5.25
2022-09-09T14:40:05.164Z,6.20
2022-09-09T14:42:53.731Z,4.53
2022-09-09T14:45:40.703Z,3.35
2022-09-09T14:48:27.674Z,3.97
2022-09-09T14:51:21.252Z,4.13
2022-09-09T14:54:08.365Z,3.53
2022-09-09T14:56:55.252Z,4.32
2022-09-09T14:59:42.145Z,3.45
2022-09-09T15:02:30.955Z,4.55
2022-09-09T15:05:18.007Z,1.90
2022-09-09T15:08:04.926Z,3.00
2022-09-09T15:10:51.812Z,4.05
2022-09-09T15:13:40.139Z,3.78
2022-09-09T15:16:28.904Z,3.78
2022-09-09T15:19:15.957Z,3.00
2022-09-09T15:22:03.305Z,1.95
2022-09-09T15:24:50.203Z,3.80
2022-09-09T15:27:39.636Z,3.72
2022-09-09T15:30:26.563Z,3.78
2022-09-09T15:33:13.426Z,2.35
2022-09-09T15:36:00.613Z,2.60
2022-09-09T15:38:48.536Z,2.33
2022-09-09T15:41:35.585Z,2.50
2022-09-09T15:44:26.280Z,5.22
2022-09-09T15:47:14.163Z,3.03
2022-09-09T15:50:01.055Z,2.13
2022-09-09T15:52:48.217Z,4.05
2022-09-09T15:55:35.132Z,5.75
2022-09-09T15:58:22.060Z,4.00
2022-09-09T16:01:12.218Z,4.43
2022-09-09T16:04:00.878Z,5.63
2022-09-09T16:06:47.840Z,2.75
2022-09-09T16:09:36.035Z,3.70
2022-09-09T16:12:22.965Z,3.40
2022-09-09T16:15:10.076Z,6.13
2022-09-09T16:17:56.951Z,2.75
2022-09-09T16:20:43.886Z,5.28
2022-09-09T16:23:30.885Z,4.07
2022-09-09T16:26:18.675Z,4.35
2022-09-09T16:29:05.909Z,4.38
2022-09-09T16:31:52.924Z,3.63
2022-09-09T16:34:39.778Z,2.65
2022-09-09T17:15:00.805Z,2.45
2022-09-09T17:17:50.016Z,3.90
2022-09-09T17:20:46.598Z,4.57
2022-09-09T17:23:38.961Z,5.38
2022-09-09T17:26:28.710Z,4.43
2022-09-09T17:29:15.641Z,4.20
2022-09-09T17:32:03.564Z,3.80
2022-09-09T17:34:50.443Z,2.35
2022-09-09T17:37:37.313Z,3.05
2022-09-09T17:40:24.375Z,5.22
2022-09-09T17:43:11.520Z,3.33
2022-09-09T17:46:10.555Z,3.45
2022-09-09T17:49:00.275Z,3.90
2022-09-09T17:51:47.237Z,5.88
2022-09-09T17:54:34.461Z,3.25
2022-09-09T17:57:23.133Z,4.18
2022-09-09T18:00:11.337Z,4.22
2022-09-09T18:02:58.322Z,3.75
2022-09-09T18:05:45.289Z,3.83
2022-09-09T18:08:36.588Z,5.43
2022-09-09T18:11:26.790Z,2.72
2022-09-09T18:14:25.439Z,4.35
2022-09-09T18:17:12.651Z,3.65
2022-09-09T18:19:59.509Z,3.00
2022-09-09T18:22:46.363Z,7.00
2022-09-09T18:25:41.296Z,3.33
2022-09-09T18:28:28.199Z,3.50
2022-09-09T18:31:17.391Z,4.50
2022-09-09T18:34:05.814Z,4.80
2022-09-09T18:36:54.920Z,3.55
2022-09-09T18:39:41.860Z,5.30
2022-09-09T18:42:28.811Z,5.10
2022-09-09T18:45:15.959Z,3.38
2022-09-09T18:48:02.859Z,4.60
2022-09-09T18:50:49.872Z,6.95
2022-09-09T18:53:37.434Z,4.05
2022-09-09T18:56:24.767Z,6.10
2022-09-09T18:59:14.934Z,3.30
2022-09-09T19:02:02.090Z,4.85
2022-09-09T19:04:50.141Z,5.82
2022-09-09T19:07:56.019Z,5.50
2022-09-09T19:10:42.900Z,5.68
2022-09-09T19:13:29.790Z,4.50
2022-09-09T19:16:17.633Z,6.45
2022-09-09T19:19:08.174Z,5.38
2022-09-09T19:21:58.229Z,4.88
2022-09-09T19:24:45.400Z,4.28
2022-09-09T19:27:32.561Z,3.67
2022-09-09T19:30:19.408Z,5.00
2022-09-09T19:33:06.650Z,4.95
2022-09-09T19:36:04.594Z,6.40
2022-09-09T19:38:53.465Z,6.60
2022-09-09T19:41:40.831Z,3.72
2022-09-09T19:44:27.794Z,4.78
2022-09-09T19:47:14.888Z,6.93
2022-09-09T19:50:02.119Z,5.32
2022-09-09T19:52:49.000Z,4.60
2022-09-09T19:55:39.271Z,4.47
2022-09-09T19:58:26.156Z,3.72
2022-09-09T20:01:19.363Z,4.22
2022-09-09T20:04:07.207Z,6.18
2022-09-09T20:06:55.182Z,5.10
2022-09-09T20:09:42.118Z,5.82
2022-09-09T20:12:29.007Z,4.30
2022-09-09T20:15:16.367Z,5.40
2022-09-09T20:18:04.495Z,5.13
2022-09-09T20:20:51.593Z,4.38
2022-09-09T20:23:39.272Z,4.63
2022-09-09T20:26:28.641Z,4.22
2022-09-09T20:29:18.094Z,6.55
2022-09-09T20:32:05.831Z,4.85
2022-09-09T20:34:53.191Z,5.22
2022-09-09T20:37:40.878Z,3.97
2022-09-09T20:40:31.556Z,3.85
2022-09-09T20:43:20.770Z,4.95
2022-09-09T20:46:07.729Z,4.32
2022-09-09T20:49:02.608Z,3.60
2022-09-09T20:51:50.903Z,5.68
2022-09-09T20:54:38.727Z,3.50
2022-09-09T20:57:25.708Z,5.70
2022-09-09T21:00:12.921Z,4.00
2022-09-09T21:03:00.073Z,5.85
2022-09-09T21:05:47.788Z,5.28
2022-09-09T21:08:35.419Z,5.70
2022-09-09T21:11:22.644Z,4.10
2022-09-09T21:14:10.064Z,7.05
2022-09-09T21:16:57.765Z,4.38
2022-09-09T21:19:45.080Z,5.70
2022-09-09T21:22:32.111Z,5.32
2022-09-09T21:25:18.951Z,7.13
2022-09-09T21:28:06.529Z,3.30
2022-09-09T21:30:55.901Z,4.45
2022-09-09T21:33:43.225Z,6.70
2022-09-09T21:36:30.219Z,4.72
2022-09-09T21:39:17.073Z,6.32
2022-09-09T21:42:04.099Z,5.67
2022-09-09T21:44:51.020Z,3.28
2022-09-09T21:47:37.919Z,5.10
2022-09-09T21:50:28.449Z,3.88
2022-09-09T21:53:20.139Z,4.22
2022-09-09T21:56:12.411Z,4.00
2022-09-09T21:59:03.637Z,3.90
2022-09-09T22:01:50.639Z,5.28
2022-09-09T22:04:37.651Z,4.78
2022-09-09T22:07:24.557Z,4.55
2022-09-09T22:10:12.906Z,3.90
2022-09-09T22:12:59.753Z,4.27
2022-09-09T22:15:47.002Z,5.07
2022-09-09T22:18:34.949Z,5.00
2022-09-09T22:21:22.693Z,4.13
2022-09-09T22:24:09.941Z,5.33
2022-09-09T22:26:56.818Z,6.33
2022-09-09T22:29:43.858Z,5.93
2022-09-09T22:32:31.164Z,8.90
2022-09-09T22:35:18.155Z,4.35
2022-09-09T22:38:05.181Z,4.30
2022-09-09T22:40:52.580Z,5.90
2022-09-09T22:43:42.257Z,6.95
2022-09-09T22:46:29.778Z,5.43
2022-09-09T22:49:16.759Z,3.88
2022-09-09T22:52:03.863Z,5.07
2022-09-09T22:54:51.629Z,4.53
2022-09-09T22:57:38.477Z,4.83
2022-09-09T23:00:26.153Z,3.88
2022-09-09T23:03:13.343Z,4.37
2022-09-09T23:06:01.879Z,4.28
2022-09-09T23:08:55.762Z,7.80
2022-09-09T23:11:42.751Z,4.50
2022-09-09T23:14:33.659Z,3.87
2022-09-09T23:17:20.939Z,5.50
2022-09-09T23:20:10.422Z,4.10
2022-09-09T23:22:57.291Z,4.57
2022-09-09T23:25:44.145Z,5.63
2022-09-09T23:28:36.147Z,4.47
2022-09-09T23:31:24.812Z,4.50
2022-09-09T23:34:12.935Z,3.57
2022-09-09T23:36:59.789Z,4.40
2022-09-09T23:39:47.756Z,5.53
2022-09-09T23:42:34.647Z,3.67
2022-09-09T23:45:21.608Z,4.32
2022-09-09T23:48:08.440Z,4.13
2022-09-09T23:50:55.359Z,5.32
2022-09-09T23:53:42.276Z,5.38
2022-09-09T23:56:35.509Z,3.90
2022-09-09T23:59:22.399Z,6.20
